createdAt,value
2024-02-22T00:00:43.785Z,618.00
2024-02-22T00:01:43.885Z,615.00
2024-02-22T00:02:43.865Z,617.00
2024-02-22T00:03:43.932Z,618.00
2024-02-22T00:04:44.136Z,617.00
2024-02-22T00:05:44.119Z,620.00
2024-02-22T00:06:44.194Z,618.00
2024-02-22T00:07:44.150Z,624.00
2024-02-22T00:08:44.211Z,627.00
2024-02-22T00:09:44.224Z,626.00
2024-02-22T00:10:44.376Z,628.00
2024-02-22T00:11:44.396Z,632.00
2024-02-22T00:12:44.373Z,635.00
2024-02-22T00:13:44.490Z,635.00
2024-02-22T00:14:44.425Z,639.00
2024-02-22T00:15:44.481Z,641.00
2024-02-22T00:16:44.581Z,645.00
2024-02-22T00:17:44.585Z,648.00
2024-02-22T00:18:44.681Z,642.00
2024-02-22T00:19:44.630Z,648.00
2024-02-22T00:20:44.662Z,646.00
2024-02-22T00:21:44.706Z,642.00
2024-02-22T00:22:44.754Z,639.00
2024-02-22T00:23:44.800Z,637.00
2024-02-22T00:24:44.830Z,638.00
2024-02-22T00:25:44.932Z,633.00
2024-02-22T00:26:44.950Z,637.00
2024-02-22T00:27:44.953Z,633.00
2024-02-22T00:28:45.071Z,636.00
2024-02-22T00:29:45.071Z,630.00
2024-02-22T00:30:45.120Z,637.00
2024-02-22T00:31:45.197Z,636.00
2024-02-22T00:32:45.284Z,637.00
2024-02-22T00:33:45.303Z,635.00
2024-02-22T00:34:45.334Z,636.00
2024-02-22T00:35:45.335Z,630.00
2024-02-22T00:36:45.406Z,628.00
2024-02-22T00:37:45.496Z,629.00
2024-02-22T00:38:45.464Z,627.00
2024-02-22T00:39:45.508Z,623.00
2024-02-22T00:40:45.604Z,625.00
2024-02-22T00:41:45.624Z,628.00
2024-02-22T00:42:45.640Z,629.00
2024-02-22T00:43:45.704Z,630.00
2024-02-22T00:44:45.759Z,624.00
2024-02-22T00:45:45.775Z,618.00
2024-02-22T00:46:45.884Z,622.00
2024-02-22T00:47:45.946Z,621.00
2024-02-22T00:48:46.069Z,619.00
2024-02-22T00:49:46.068Z,620.00
2024-02-22T00:50:46.157Z,621.00
2024-02-22T00:51:46.109Z,622.00
2024-02-22T00:52:46.227Z,621.00
2024-02-22T00:53:46.216Z,618.00
2024-02-22T00:54:46.254Z,620.00
2024-02-22T00:55:46.387Z,615.00
2024-02-22T00:56:46.353Z,615.00
2024-02-22T00:57:46.417Z,615.00
2024-02-22T00:58:46.500Z,607.00
2024-02-22T00:59:46.627Z,613.00
2024-02-22T01:00:46.618Z,613.00
2024-02-22T01:01:46.731Z,611.00
2024-02-22T01:02:46.629Z,612.00
2024-02-22T01:03:46.751Z,611.00
2024-02-22T01:04:46.883Z,610.00
2024-02-22T01:05:46.865Z,615.00
2024-02-22T01:06:46.784Z,614.00
2024-02-22T01:07:46.932Z,616.00
2024-02-22T01:08:46.904Z,620.00
2024-02-22T01:09:46.971Z,618.00
2024-02-22T01:10:47.094Z,616.00
2024-02-22T01:11:47.165Z,618.00
2024-02-22T01:12:47.123Z,619.00
2024-02-22T01:13:47.143Z,621.00
2024-02-22T01:14:47.187Z,621.00
2024-02-22T01:15:47.241Z,623.00
2024-02-22T01:16:47.324Z,623.00
2024-02-22T01:17:47.368Z,624.00
2024-02-22T01:18:47.377Z,628.00
2024-02-22T01:19:47.388Z,631.00
2024-02-22T01:20:47.435Z,628.00
2024-02-22T01:21:47.518Z,630.00
2024-02-22T01:22:47.513Z,626.00
2024-02-22T01:23:47.566Z,620.00
2024-02-22T01:24:47.566Z,619.00
2024-02-22T01:25:47.697Z,620.00
2024-02-22T01:26:47.793Z,617.00
2024-02-22T01:27:47.762Z,620.00
2024-02-22T01:28:47.799Z,615.00
2024-02-22T01:29:47.909Z,623.00
2024-02-22T01:30:47.957Z,623.00
2024-02-22T01:31:47.936Z,624.00
2024-02-22T01:33:48.026Z,630.00
2024-02-22T01:34:48.096Z,628.00
2024-02-22T01:35:48.115Z,627.00
2024-02-22T01:36:48.149Z,624.00
2024-02-22T01:37:48.239Z,623.00
2024-02-22T01:38:48.257Z,618.00
2024-02-22T01:39:48.295Z,623.00
2024-02-22T01:40:48.423Z,626.00
2024-02-22T01:41:48.371Z,622.00
2024-02-22T01:42:48.445Z,619.00
2024-02-22T01:43:48.529Z,618.00
2024-02-22T01:44:48.535Z,615.00
2024-02-22T01:45:48.593Z,613.00
2024-02-22T01:46:48.699Z,613.00
2024-02-22T01:47:48.742Z,613.00
2024-02-22T01:48:48.839Z,616.00
2024-02-22T01:49:48.810Z,621.00
2024-02-22T01:50:48.794Z,626.00
2024-02-22T01:51:48.829Z,624.00
2024-02-22T01:52:48.906Z,621.00
2024-02-22T01:53:48.895Z,618.00
2024-02-22T01:54:49.018Z,616.00
2024-02-22T01:55:48.995Z,612.00
2024-02-22T01:56:49.086Z,611.00
2024-02-22T01:57:49.087Z,609.00
2024-02-22T01:58:49.264Z,611.00
2024-02-22T01:59:49.224Z,613.00
2024-02-22T02:00:49.312Z,606.00
2024-02-22T02:01:49.330Z,607.00
2024-02-22T02:02:49.481Z,608.00
2024-02-22T02:03:49.401Z,609.00
2024-02-22T02:04:49.492Z,606.00
2024-02-22T02:05:49.480Z,607.00
2024-02-22T02:06:49.541Z,602.00
2024-02-22T02:07:49.645Z,607.00
2024-02-22T02:08:49.537Z,607.00
2024-02-22T02:09:49.597Z,611.00
2024-02-22T02:10:49.681Z,610.00
2024-02-22T02:11:49.737Z,612.00
2024-02-22T02:12:49.701Z,606.00
2024-02-22T02:13:49.761Z,612.00
2024-02-22T02:14:49.761Z,609.00
2024-02-22T02:15:49.803Z,612.00
2024-02-22T02:16:49.870Z,611.00
2024-02-22T02:17:49.824Z,613.00
2024-02-22T02:18:49.909Z,616.00
2024-02-22T02:19:49.987Z,623.00
2024-02-22T02:20:49.946Z,617.00
2024-02-22T02:21:49.933Z,623.00
2024-02-22T02:22:49.993Z,621.00
2024-02-22T02:23:49.964Z,620.00
2024-02-22T02:24:49.981Z,623.00
2024-02-22T02:25:50.068Z,617.00
2024-02-22T02:26:50.082Z,619.00
2024-02-22T02:27:50.091Z,619.00
2024-02-22T02:28:50.104Z,618.00
2024-02-22T02:29:50.108Z,618.00
2024-02-22T02:30:50.064Z,616.00
2024-02-22T02:31:50.177Z,618.00
2024-02-22T02:32:50.196Z,618.00
2024-02-22T02:33:50.246Z,619.00
2024-02-22T02:34:50.170Z,618.00
2024-02-22T02:35:50.171Z,619.00
2024-02-22T02:36:50.238Z,620.00
2024-02-22T02:37:50.340Z,621.00
2024-02-22T02:38:50.269Z,619.00
2024-02-22T02:39:50.313Z,619.00
2024-02-22T02:40:50.391Z,622.00
2024-02-22T02:41:50.328Z,622.00
2024-02-22T02:42:50.392Z,625.00
2024-02-22T02:43:50.390Z,624.00
2024-02-22T02:44:50.408Z,628.00
2024-02-22T02:45:50.377Z,632.00
2024-02-22T02:46:50.457Z,633.00
2024-02-22T02:47:50.518Z,634.00
2024-02-22T02:48:50.567Z,640.00
2024-02-22T02:49:50.592Z,637.00
2024-02-22T02:50:50.549Z,640.00
2024-02-22T02:51:50.583Z,645.00
2024-02-22T02:52:50.679Z,644.00
2024-02-22T02:53:50.759Z,647.00
2024-02-22T02:54:50.750Z,647.00
2024-02-22T02:55:50.805Z,652.00
2024-02-22T02:56:50.863Z,654.00
2024-02-22T02:57:50.919Z,653.00
2024-02-22T02:58:50.969Z,654.00
2024-02-22T02:59:50.981Z,657.00
2024-02-22T03:00:51.050Z,652.00
2024-02-22T03:01:51.156Z,654.00
2024-02-22T03:02:51.140Z,663.00
2024-02-22T03:03:51.237Z,664.00
2024-02-22T03:04:51.347Z,662.00
2024-02-22T03:05:51.315Z,665.00
2024-02-22T03:06:51.304Z,662.00
2024-02-22T03:07:51.340Z,664.00
2024-02-22T03:08:51.388Z,672.00
2024-02-22T03:09:51.457Z,678.00
2024-02-22T03:10:51.590Z,677.00
2024-02-22T03:11:51.664Z,670.00
2024-02-22T03:12:51.626Z,683.00
2024-02-22T03:13:51.676Z,679.00
2024-02-22T03:14:51.721Z,679.00
2024-02-22T03:15:51.747Z,685.00
2024-02-22T03:16:51.801Z,691.00
2024-02-22T03:17:51.922Z,697.00
2024-02-22T03:18:51.929Z,692.00
2024-02-22T03:19:51.928Z,692.00
2024-02-22T03:20:51.983Z,699.00
2024-02-22T03:21:52.011Z,697.00
2024-02-22T03:22:52.063Z,694.00
2024-02-22T03:23:52.107Z,699.00
2024-02-22T03:24:52.106Z,699.00
2024-02-22T03:25:52.344Z,723.00
2024-02-22T03:26:52.239Z,710.00
2024-02-22T03:27:52.261Z,710.00
2024-02-22T03:28:52.354Z,717.00
2024-02-22T03:29:52.386Z,721.00
2024-02-22T03:30:52.373Z,715.00
2024-02-22T03:31:52.482Z,703.00
2024-02-22T03:32:52.520Z,723.00
2024-02-22T03:33:52.578Z,731.00
2024-02-22T03:34:52.628Z,732.00
2024-02-22T03:35:52.603Z,727.00
2024-02-22T03:36:52.648Z,735.00
2024-02-22T03:37:52.737Z,736.00
2024-02-22T03:38:52.720Z,742.00
2024-02-22T03:39:52.815Z,729.00
2024-02-22T03:40:52.896Z,738.00
2024-02-22T03:41:52.861Z,733.00
2024-02-22T03:42:52.933Z,741.00
2024-02-22T03:43:53.015Z,736.00
2024-02-22T03:44:53.052Z,740.00
2024-02-22T03:45:53.111Z,742.00
2024-02-22T03:46:53.205Z,743.00
2024-02-22T03:47:53.199Z,735.00
2024-02-22T03:48:53.260Z,744.00
2024-02-22T03:49:53.253Z,746.00
2024-02-22T03:50:53.289Z,750.00
2024-02-22T03:51:53.336Z,745.00
2024-02-22T03:52:53.370Z,760.00
2024-02-22T03:53:53.364Z,760.00
2024-02-22T03:54:53.390Z,752.00
2024-02-22T03:55:53.474Z,749.00
2024-02-22T03:56:53.470Z,740.00
2024-02-22T03:57:53.554Z,753.00
2024-02-22T03:58:53.593Z,753.00
2024-02-22T03:59:53.565Z,758.00
2024-02-22T04:00:53.677Z,757.00
2024-02-22T04:01:53.706Z,753.00
2024-02-22T04:02:53.694Z,747.00
2024-02-22T04:03:53.791Z,739.00
2024-02-22T04:04:53.842Z,704.00
2024-02-22T04:05:53.904Z,685.00
2024-02-22T04:06:53.949Z,662.00
2024-02-22T04:07:54.000Z,652.00
2024-02-22T04:08:54.030Z,635.00
2024-02-22T04:09:54.043Z,626.00
2024-02-22T04:10:54.136Z,625.00
2024-02-22T04:11:54.227Z,623.00
2024-02-22T04:12:54.228Z,625.00
2024-02-22T04:13:54.313Z,629.00
2024-02-22T04:14:54.317Z,623.00
2024-02-22T04:15:54.329Z,616.00
2024-02-22T04:16:54.473Z,611.00
2024-02-22T04:17:54.494Z,611.00
2024-02-22T04:18:54.493Z,611.00
2024-02-22T04:19:54.519Z,613.00
2024-02-22T04:20:54.476Z,618.00
2024-02-22T04:21:54.479Z,618.00
2024-02-22T04:22:54.617Z,626.00
2024-02-22T04:23:54.613Z,627.00
2024-02-22T04:24:54.667Z,635.00
2024-02-22T04:25:54.763Z,635.00
2024-02-22T04:26:54.767Z,639.00
2024-02-22T04:27:54.856Z,641.00
2024-02-22T04:28:54.851Z,636.00
2024-02-22T04:29:54.895Z,636.00
2024-02-22T04:30:54.961Z,639.00
2024-02-22T04:31:55.058Z,635.00
2024-02-22T04:32:55.126Z,637.00
2024-02-22T04:33:55.127Z,632.00
2024-02-22T04:34:55.248Z,633.00
2024-02-22T04:35:55.305Z,641.00
2024-02-22T04:36:55.238Z,645.00
2024-02-22T04:37:55.332Z,649.00
2024-02-22T04:38:55.385Z,650.00
2024-02-22T04:39:55.370Z,644.00
2024-02-22T04:40:55.488Z,644.00
2024-02-22T04:41:55.491Z,639.00
2024-02-22T04:42:55.499Z,648.00
2024-02-22T04:43:55.580Z,649.00
2024-02-22T04:44:55.605Z,652.00
2024-02-22T04:45:55.719Z,658.00
2024-02-22T04:46:55.791Z,655.00
2024-02-22T04:47:55.735Z,660.00
2024-02-22T04:48:55.825Z,660.00
2024-02-22T04:49:55.894Z,665.00
2024-02-22T04:50:55.912Z,665.00
2024-02-22T04:51:55.976Z,665.00
2024-02-22T04:52:56.052Z,662.00
2024-02-22T04:53:56.069Z,663.00
2024-02-22T04:55:03.871Z,600.00
2024-02-22T04:56:03.893Z,600.00
2024-02-22T04:57:03.834Z,600.00
2024-02-22T04:58:03.972Z,600.00
2024-02-22T04:59:03.918Z,600.00
2024-02-22T05:00:03.860Z,603.00
2024-02-22T05:01:03.960Z,607.00
2024-02-22T05:02:03.891Z,603.00
2024-02-22T05:03:03.886Z,602.00
2024-02-22T05:04:03.972Z,603.00
2024-02-22T05:05:03.924Z,608.00
2024-02-22T05:06:03.927Z,607.00
2024-02-22T05:07:03.893Z,614.00
2024-02-22T05:08:03.973Z,613.00
2024-02-22T05:09:03.941Z,613.00
2024-02-22T05:10:03.875Z,611.00
2024-02-22T05:11:03.977Z,613.00
2024-02-22T05:12:03.942Z,605.00
2024-02-22T05:13:03.923Z,605.00
2024-02-22T05:14:03.921Z,603.00
2024-02-22T05:15:03.882Z,600.00
2024-02-22T05:16:03.894Z,603.00
2024-02-22T05:17:03.966Z,602.00
2024-02-22T05:18:04.031Z,601.00
2024-02-22T05:19:03.959Z,604.00
2024-02-22T05:20:03.934Z,603.00
2024-02-22T05:21:03.917Z,603.00
2024-02-22T05:22:03.918Z,602.00
2024-02-22T05:23:03.944Z,605.00
2024-02-22T05:24:03.909Z,606.00
2024-02-22T05:25:03.900Z,602.00
2024-02-22T05:26:03.971Z,604.00
2024-02-22T05:27:03.940Z,605.00
2024-02-22T05:28:03.923Z,602.00
2024-02-22T05:29:03.923Z,601.00
2024-02-22T05:30:03.910Z,600.00
2024-02-22T05:31:03.916Z,605.00
2024-02-22T05:32:03.979Z,604.00
2024-02-22T05:33:03.993Z,612.00
2024-02-22T05:34:03.934Z,607.00
2024-02-22T05:35:04.022Z,605.00
2024-02-22T05:36:03.920Z,600.00
2024-02-22T05:37:03.930Z,603.00
2024-02-22T05:38:03.979Z,599.00
2024-02-22T05:39:03.938Z,600.00
2024-02-22T05:40:03.931Z,600.00
2024-02-22T05:41:03.997Z,601.00
2024-02-22T05:42:03.940Z,611.00
2024-02-22T05:43:03.923Z,615.00
2024-02-22T05:44:03.943Z,617.00
2024-02-22T05:45:03.930Z,618.00
2024-02-22T05:46:03.964Z,622.00
2024-02-22T05:47:03.956Z,618.00
2024-02-22T05:48:04.099Z,613.00
2024-02-22T05:49:04.272Z,611.00
2024-02-22T05:50:04.111Z,615.00
2024-02-22T05:51:04.136Z,622.00
2024-02-22T05:52:04.162Z,620.00
2024-02-22T05:53:04.658Z,628.00
2024-02-22T05:54:04.273Z,622.00
2024-02-22T05:55:04.294Z,625.00
2024-02-22T05:56:04.405Z,629.00
2024-02-22T05:57:04.427Z,627.00
2024-02-22T05:58:04.467Z,624.00
2024-02-22T05:59:04.609Z,623.00
2024-02-22T06:00:04.580Z,618.00
2024-02-22T06:01:27.166Z,611.00
2024-02-22T06:02:04.756Z,611.00
2024-02-22T06:03:07.927Z,612.00
2024-02-22T06:04:05.720Z,611.00
2024-02-22T06:05:04.705Z,613.00
2024-02-22T06:06:04.651Z,612.00
2024-02-22T06:07:04.674Z,613.00
2024-02-22T06:08:04.686Z,612.00
2024-02-22T06:09:04.643Z,624.00
2024-02-22T06:10:04.631Z,621.00
2024-02-22T06:11:04.717Z,629.00
2024-02-22T06:12:04.704Z,628.00
2024-02-22T06:13:04.643Z,628.00
2024-02-22T06:14:04.648Z,627.00
2024-02-22T06:15:04.703Z,632.00
2024-02-22T06:16:04.723Z,622.00
2024-02-22T06:17:04.822Z,620.00
2024-02-22T06:19:04.973Z,619.00
2024-02-22T06:20:04.938Z,619.00
2024-02-22T06:21:04.982Z,615.00
2024-02-22T06:22:05.014Z,612.00
2024-02-22T06:23:05.103Z,609.00
2024-02-22T06:24:05.117Z,610.00
2024-02-22T06:25:05.165Z,613.00
2024-02-22T06:26:05.353Z,617.00
2024-02-22T06:27:05.254Z,617.00
2024-02-22T06:28:05.327Z,621.00
2024-02-22T06:29:05.437Z,626.00
2024-02-22T06:30:05.390Z,627.00
2024-02-22T06:31:05.513Z,629.00
2024-02-22T06:32:05.536Z,625.00
2024-02-22T06:33:05.772Z,632.00
2024-02-22T06:34:06.099Z,627.00
2024-02-22T06:35:05.708Z,622.00
2024-02-22T06:36:05.723Z,613.00
2024-02-22T06:37:05.786Z,621.00
2024-02-22T06:38:05.928Z,620.00
2024-02-22T06:39:06.040Z,618.00
2024-02-22T06:40:05.908Z,630.00
2024-02-22T06:41:06.060Z,629.00
2024-02-22T06:42:06.119Z,626.00
2024-02-22T06:43:06.072Z,622.00
2024-02-22T06:44:06.605Z,622.00
2024-02-22T06:45:06.202Z,622.00
2024-02-22T06:46:28.774Z,633.00
2024-02-22T06:47:06.293Z,634.00
2024-02-22T06:48:06.345Z,638.00
2024-02-22T06:49:06.627Z,651.00
2024-02-22T06:50:06.413Z,689.00
2024-02-22T06:51:07.291Z,789.00
2024-02-22T06:52:06.309Z,834.00
2024-02-22T06:53:06.268Z,861.00
2024-02-22T06:54:06.579Z,888.00
2024-02-22T06:55:06.298Z,864.00
2024-02-22T06:56:06.285Z,865.00
2024-02-22T06:57:06.228Z,892.00
2024-02-22T06:58:06.305Z,902.00
2024-02-22T06:59:06.651Z,922.00
2024-02-22T07:00:06.346Z,943.00
2024-02-22T07:01:06.272Z,942.00
2024-02-22T07:02:06.332Z,938.00
2024-02-22T07:03:06.546Z,935.00
2024-02-22T07:04:06.649Z,940.00
2024-02-22T07:05:06.558Z,945.00
2024-02-22T07:06:06.392Z,946.00
2024-02-22T07:07:06.480Z,953.00
2024-02-22T07:08:06.584Z,952.00
2024-02-22T07:09:06.589Z,954.00
2024-02-22T07:10:06.582Z,966.00
2024-02-22T07:11:06.755Z,981.00
2024-02-22T07:12:06.817Z,971.00
2024-02-22T07:13:06.789Z,947.00
2024-02-22T07:14:07.272Z,953.00
2024-02-22T07:15:06.848Z,970.00
2024-02-22T07:16:06.914Z,974.00
2024-02-22T07:17:07.031Z,955.00
2024-02-22T07:18:07.128Z,946.00
2024-02-22T07:19:07.163Z,941.00
2024-02-22T07:20:07.322Z,935.00
2024-02-22T07:21:07.169Z,943.00
2024-02-22T07:22:07.165Z,958.00
2024-02-22T07:23:07.374Z,971.00
2024-02-22T07:24:07.277Z,980.00
2024-02-22T07:25:07.598Z,971.00
2024-02-22T07:26:07.420Z,990.00
2024-02-22T07:27:07.444Z,995.00
2024-02-22T07:28:07.513Z,997.00
2024-02-22T07:29:11.555Z,992.00
2024-02-22T07:30:08.571Z,993.00
2024-02-22T07:31:07.528Z,993.00
2024-02-22T07:32:07.584Z,988.00
2024-02-22T07:33:07.620Z,969.00
2024-02-22T07:34:07.590Z,969.00
2024-02-22T07:35:07.656Z,960.00
2024-02-22T07:36:10.492Z,960.00
2024-02-22T07:37:07.576Z,955.00
2024-02-22T07:38:07.622Z,937.00
2024-02-22T07:39:07.639Z,914.00
2024-02-22T07:40:07.618Z,905.00
2024-02-22T07:41:07.580Z,895.00
2024-02-22T07:42:07.620Z,893.00
2024-02-22T07:43:07.583Z,890.00
2024-02-22T07:44:10.954Z,900.00
2024-02-22T07:45:07.572Z,900.00
2024-02-22T07:46:07.590Z,901.00
2024-02-22T07:47:07.630Z,903.00
2024-02-22T07:48:07.658Z,904.00
2024-02-22T07:49:07.752Z,930.00
2024-02-22T07:50:07.672Z,930.00
2024-02-22T07:51:07.576Z,935.00
2024-02-22T07:52:07.593Z,918.00
2024-02-22T07:53:07.660Z,918.00
2024-02-22T07:54:07.603Z,911.00
2024-02-22T07:55:07.628Z,899.00
2024-02-22T07:56:07.718Z,899.00
2024-02-22T07:57:07.615Z,887.00
2024-02-22T07:58:07.662Z,880.00
2024-02-22T07:59:07.614Z,871.00
2024-02-22T08:00:07.632Z,860.00
2024-02-22T08:01:07.617Z,842.00
2024-02-22T08:02:07.650Z,857.00
2024-02-22T08:03:07.579Z,845.00
2024-02-22T08:04:07.598Z,826.00
2024-02-22T08:05:07.727Z,824.00
2024-02-22T08:06:07.632Z,813.00
2024-02-22T08:07:07.681Z,806.00
2024-02-22T08:08:07.658Z,799.00
2024-02-22T08:09:07.588Z,788.00
2024-02-22T08:10:07.607Z,766.00
2024-02-22T08:11:07.724Z,731.00
2024-02-22T08:12:07.728Z,688.00
2024-02-22T08:13:07.630Z,666.00
2024-02-22T08:14:07.650Z,661.00
2024-02-22T08:15:08.265Z,653.00
2024-02-22T08:16:07.633Z,657.00
2024-02-22T08:17:07.643Z,652.00
2024-02-22T08:18:07.658Z,647.00
2024-02-22T08:19:07.607Z,635.00
2024-02-22T08:20:07.765Z,640.00
2024-02-22T08:21:07.698Z,645.00
2024-02-22T08:22:07.632Z,643.00
2024-02-22T08:23:07.709Z,650.00
2024-02-22T08:24:07.661Z,646.00
2024-02-22T08:25:07.648Z,655.00
2024-02-22T08:26:07.693Z,660.00
2024-02-22T08:27:07.678Z,664.00
2024-02-22T08:28:08.226Z,665.00
2024-02-22T08:29:07.650Z,663.00
2024-02-22T08:30:08.103Z,659.00
2024-02-22T08:31:07.645Z,663.00
2024-02-22T08:32:08.722Z,656.00
2024-02-22T08:33:07.772Z,665.00
2024-02-22T08:34:07.888Z,675.00
2024-02-22T08:35:07.803Z,664.00
2024-02-22T08:36:07.779Z,656.00
2024-02-22T08:37:07.842Z,651.00
2024-02-22T08:38:07.890Z,645.00
2024-02-22T08:39:07.903Z,641.00
2024-02-22T08:40:19.908Z,647.00
2024-02-22T08:41:08.981Z,647.00
2024-02-22T08:42:07.925Z,649.00
2024-02-22T08:43:07.932Z,654.00
2024-02-22T08:44:07.997Z,661.00
2024-02-22T08:45:07.965Z,686.00
2024-02-22T08:46:07.958Z,704.00
2024-02-22T08:47:08.014Z,732.00
2024-02-22T08:48:08.113Z,741.00
2024-02-22T08:49:08.052Z,742.00
2024-02-22T08:50:08.218Z,731.00
2024-02-22T08:51:08.540Z,710.00
2024-02-22T08:52:08.099Z,684.00
2024-02-22T08:53:08.885Z,658.00
2024-02-22T08:54:08.046Z,641.00
2024-02-22T08:55:07.974Z,629.00
2024-02-22T08:56:08.035Z,618.00
2024-02-22T08:57:08.045Z,609.00
2024-02-22T08:58:08.034Z,605.00
2024-02-22T08:59:08.134Z,600.00
2024-02-22T09:00:08.086Z,605.00
2024-02-22T09:01:08.251Z,610.00
2024-02-22T09:02:08.312Z,613.00
2024-02-22T09:03:08.269Z,613.00
2024-02-22T09:04:08.277Z,614.00
2024-02-22T09:05:08.659Z,610.00
2024-02-22T09:06:08.467Z,609.00
2024-02-22T09:07:08.533Z,612.00
2024-02-22T09:08:08.564Z,613.00
2024-02-22T09:09:08.617Z,613.00
2024-02-22T09:10:08.510Z,612.00
2024-02-22T09:11:08.639Z,618.00
2024-02-22T09:12:08.673Z,622.00
2024-02-22T09:13:08.648Z,625.00
2024-02-22T09:14:08.648Z,626.00
2024-02-22T09:15:08.712Z,633.00
2024-02-22T09:16:08.720Z,640.00
2024-02-22T09:17:08.788Z,647.00
2024-02-22T09:18:08.867Z,651.00
2024-02-22T09:19:08.837Z,658.00
2024-02-22T09:20:08.916Z,668.00
2024-02-22T09:21:08.838Z,685.00
2024-02-22T09:22:08.831Z,695.00
2024-02-22T09:23:08.938Z,712.00
2024-02-22T09:24:08.946Z,723.00
2024-02-22T09:25:08.989Z,732.00
2024-02-22T09:26:09.096Z,750.00
2024-02-22T09:27:09.076Z,772.00
2024-02-22T09:28:09.633Z,784.00
2024-02-22T09:29:09.206Z,802.00
2024-02-22T09:30:09.217Z,806.00
2024-02-22T09:31:09.663Z,809.00
2024-02-22T09:32:09.350Z,787.00
2024-02-22T09:33:09.530Z,795.00
2024-02-22T09:34:09.668Z,797.00
2024-02-22T09:35:09.528Z,775.00
2024-02-22T09:36:09.816Z,774.00
2024-02-22T09:37:09.479Z,764.00
2024-02-22T09:38:09.626Z,760.00
2024-02-22T09:39:09.559Z,757.00
2024-02-22T09:40:09.597Z,743.00
2024-02-22T09:41:09.712Z,725.00
2024-02-22T09:42:09.647Z,714.00
2024-02-22T09:43:09.722Z,672.00
2024-02-22T09:44:09.839Z,663.00
2024-02-22T09:45:09.739Z,650.00
2024-02-22T09:46:09.808Z,640.00
2024-02-22T09:47:09.908Z,635.00
2024-02-22T09:48:09.929Z,626.00
2024-02-22T09:49:09.905Z,614.00
2024-02-22T09:50:09.944Z,600.00
2024-02-22T09:51:10.133Z,604.00
2024-02-22T09:52:09.954Z,599.00
2024-02-22T09:53:10.031Z,599.00
2024-02-22T09:54:10.008Z,600.00
2024-02-22T09:55:10.066Z,599.00
2024-02-22T09:56:10.133Z,597.00
2024-02-22T09:57:10.318Z,602.00
2024-02-22T09:58:10.178Z,599.00
2024-02-22T09:59:10.266Z,604.00
2024-02-22T10:00:10.295Z,602.00
2024-02-22T10:01:10.722Z,601.00
2024-02-22T10:02:10.394Z,606.00
2024-02-22T10:03:12.249Z,607.00
2024-02-22T10:04:10.477Z,601.00
2024-02-22T10:05:10.744Z,600.00
2024-02-22T10:06:10.713Z,599.00
2024-02-22T10:07:10.647Z,600.00
2024-02-22T10:08:10.734Z,600.00
2024-02-22T10:09:10.752Z,600.00
2024-02-22T10:10:10.776Z,602.00
2024-02-22T10:11:10.924Z,600.00
2024-02-22T10:12:11.133Z,600.00
2024-02-22T10:13:12.010Z,600.00
2024-02-22T10:14:11.076Z,599.00
2024-02-22T10:15:11.225Z,600.00
2024-02-22T10:16:11.032Z,600.00
2024-02-22T10:17:11.125Z,600.00
2024-02-22T10:18:11.204Z,610.00
2024-02-22T10:19:11.267Z,606.00
2024-02-22T10:20:11.807Z,600.00
2024-02-22T10:21:12.629Z,600.00
2024-02-22T10:22:11.306Z,611.00
2024-02-22T10:23:11.593Z,614.00
2024-02-22T10:24:11.418Z,602.00
2024-02-22T10:25:11.482Z,600.00
2024-02-22T10:26:11.541Z,605.00
2024-02-22T10:27:11.623Z,609.00
2024-02-22T10:28:11.660Z,601.00
2024-02-22T10:29:11.697Z,600.00
2024-02-22T10:30:11.766Z,600.00
2024-02-22T10:31:11.740Z,602.00
2024-02-22T10:32:11.796Z,600.00
2024-02-22T10:33:11.871Z,602.00
2024-02-22T10:34:11.903Z,601.00
2024-02-22T10:35:11.902Z,603.00
2024-02-22T10:36:12.207Z,607.00
2024-02-22T10:37:11.898Z,602.00
2024-02-22T10:38:11.954Z,600.00
2024-02-22T10:39:11.966Z,607.00
2024-02-22T10:40:12.007Z,605.00
2024-02-22T10:41:12.270Z,602.00
2024-02-22T10:42:12.148Z,612.00
2024-02-22T10:43:12.083Z,610.00
2024-02-22T10:44:12.163Z,607.00
2024-02-22T10:45:12.654Z,606.00
2024-02-22T10:46:12.157Z,606.00
2024-02-22T10:47:12.211Z,616.00
2024-02-22T10:48:12.271Z,604.00
2024-02-22T10:49:12.417Z,600.00
2024-02-22T10:50:12.246Z,603.00
2024-02-22T10:51:15.211Z,597.00
2024-02-22T10:52:12.708Z,600.00
2024-02-22T10:53:12.349Z,600.00
2024-02-22T10:54:12.306Z,607.00
2024-02-22T10:55:12.247Z,603.00
2024-02-22T10:56:12.327Z,605.00
2024-02-22T10:57:12.323Z,606.00
2024-02-22T10:58:12.293Z,608.00
2024-02-22T10:59:12.287Z,610.00
2024-02-22T11:00:13.296Z,610.00
2024-02-22T11:01:12.428Z,605.00
2024-02-22T11:02:12.380Z,602.00
2024-02-22T11:03:12.303Z,608.00
2024-02-22T11:04:12.360Z,602.00
2024-02-22T11:05:12.528Z,606.00
2024-02-22T11:06:12.253Z,604.00
2024-02-22T11:07:12.319Z,606.00
2024-02-22T11:08:12.341Z,602.00
2024-02-22T11:09:12.259Z,605.00
2024-02-22T11:10:12.321Z,606.00
2024-02-22T11:11:12.358Z,603.00
2024-02-22T11:12:12.715Z,602.00
2024-02-22T11:13:12.272Z,605.00
2024-02-22T11:14:12.329Z,605.00
2024-02-22T11:15:12.322Z,611.00
2024-02-22T11:16:12.312Z,596.00
2024-02-22T11:17:12.734Z,617.00
2024-02-22T11:18:12.433Z,617.00
2024-02-22T11:19:12.350Z,611.00
2024-02-22T11:20:12.408Z,611.00
2024-02-22T11:21:12.288Z,602.00
2024-02-22T11:22:12.310Z,626.00
2024-02-22T11:23:12.433Z,624.00
2024-02-22T11:24:12.420Z,631.00
2024-02-22T11:25:12.347Z,627.00
2024-02-22T11:26:12.341Z,614.00
2024-02-22T11:27:12.660Z,625.00
2024-02-22T11:28:12.379Z,635.00
2024-02-22T11:29:12.589Z,633.00
2024-02-22T11:30:12.410Z,635.00
2024-02-22T11:31:12.470Z,645.00
2024-02-22T11:32:12.551Z,638.00
2024-02-22T11:33:12.656Z,644.00
2024-02-22T11:34:12.665Z,641.00
2024-02-22T11:35:12.670Z,644.00
2024-02-22T11:36:12.638Z,649.00
2024-02-22T11:37:13.353Z,655.00
2024-02-22T11:38:12.954Z,648.00
2024-02-22T11:39:12.935Z,658.00
2024-02-22T11:40:12.986Z,665.00
2024-02-22T11:41:13.063Z,680.00
2024-02-22T11:42:13.247Z,719.00
2024-02-22T11:43:13.099Z,755.00
2024-02-22T11:44:13.311Z,776.00
2024-02-22T11:45:13.237Z,811.00
2024-02-22T11:46:13.372Z,854.00
2024-02-22T11:47:13.342Z,892.00
2024-02-22T11:48:13.409Z,930.00
2024-02-22T11:49:13.479Z,957.00
2024-02-22T11:50:13.495Z,968.00
2024-02-22T11:51:15.208Z,996.00
2024-02-22T11:52:13.526Z,992.00
2024-02-22T11:53:13.669Z,1027.00
2024-02-22T11:54:13.649Z,1071.00
2024-02-22T11:55:13.708Z,1090.00
2024-02-22T11:56:13.756Z,1121.00
2024-02-22T11:57:15.196Z,1138.00
2024-02-22T11:58:13.781Z,1184.00
2024-02-22T11:59:13.865Z,1209.00
2024-02-22T12:00:13.815Z,1221.00
2024-02-22T12:01:13.916Z,1224.00
2024-02-22T12:02:14.900Z,1230.00
2024-02-22T12:03:15.332Z,1234.00
2024-02-22T12:04:13.939Z,1226.00
2024-02-22T12:05:14.168Z,1230.00
2024-02-22T12:06:14.132Z,1259.00
2024-02-22T12:07:14.442Z,1261.00
2024-02-22T12:08:14.106Z,1283.00
2024-02-22T12:09:15.400Z,1296.00
2024-02-22T12:10:14.116Z,1318.00
2024-02-22T12:11:14.276Z,1330.00
2024-02-22T12:12:14.278Z,1324.00
2024-02-22T12:13:14.211Z,1345.00
2024-02-22T12:14:14.237Z,1367.00
2024-02-22T12:15:16.420Z,1385.00
2024-02-22T12:16:14.293Z,1384.00
2024-02-22T12:17:14.283Z,1380.00
2024-02-22T12:18:14.286Z,1386.00
2024-02-22T12:19:14.292Z,1367.00
2024-02-22T12:20:14.472Z,1363.00
2024-02-22T12:21:14.253Z,1375.00
2024-02-22T12:22:14.790Z,1381.00
2024-02-22T12:23:14.250Z,1375.00
2024-02-22T12:24:14.244Z,1400.00
2024-02-22T12:25:14.268Z,1386.00
2024-02-22T12:26:14.247Z,1395.00
2024-02-22T12:27:16.118Z,1406.00
2024-02-22T12:28:14.223Z,1407.00
2024-02-22T12:29:14.307Z,1417.00
2024-02-22T12:30:14.249Z,1456.00